Granger, TX

2:46 PM CST on February 09, 2016 (GMT -0600)
KTXGRANG4 | | Change Station
CLOSE
Current Station
Personal Weather Station
Location: Granger, TX
Elevation: 594 ft
Nearby Weather Stations

Elev 594 ft 30.74 °N, 97.43 °W | Updated 8 minutes ago

Clear
Clear
68.0 °F
Feels Like 68.0 °F
N
19.0
Wind Variable Wind from NNW
Gusts 27.0 mph

Today
High -- | Low -- °F
--% Chance of Precip.
Yesterday
High -- | Low -- °F
Precip. -- in
Pressure 30.25 in
Visibility 10.0 miles
Clouds Clear
Dew Point 33 °F
Humidity 27%
Rainfall 0.00 in
Snow Depth Not available.
7:15 AM 6:12 PM
New Moon, 2% visible
METAR KGTU 091949Z 29010G17KT 10SM CLR 20/M01 A3025
Pressure 30.25 in
Visibility 10.0 miles
Clouds Clear
Dew Point 33 °F
Humidity 27%
Rainfall 0.00 in
Snow Depth Not available.
7:15 AM 6:12 PM
New Moon, 2% visible
METAR KGTU 091949Z 29010G17KT 10SM CLR 20/M01 A3025

10-Day Weather Forecast

Almanac

Astronomy

Feb. 09, 2016 Rise Set
Actual Time
Civil Twilight
Nautical Twilight
Astronomical Twilight
Moon
Length of Visible Light
Length of Day
Tomorrow will be .
, % of the Moon is Illuminated

Today's Extremes

State Highs State Lows

Community

WunderPhotos

Upload Photos

1,891,683 photos uploaded!

WunderBlog® & News

Nearby

Air Quality

  Air Quality AQ Index Pollutant
Not available.

Snow Depth

Station Depth Elevation

Earthquake Activity

City Distance Mag. Time & Date
Minimum magnitude displayed is 2.5.

Coastal Water Temperatures

Place Temperature

Stations

Nearby Weather Stations

Station Location Temp. Windchill Dew Point Humidity Wind Precip. Elev Updated Type
                   

Watches & Warnings

There are currently no watches in effect.